createdAt,value
2022-08-03T00:03:29.508Z,3.30
2022-08-03T00:09:35.455Z,2.93
2022-08-03T00:15:39.768Z,2.70
2022-08-03T00:21:43.262Z,2.92
2022-08-03T00:27:48.373Z,2.70
2022-08-03T00:33:59.388Z,2.75
2022-08-03T00:40:08.034Z,2.88
2022-08-03T00:46:16.312Z,2.97
2022-08-03T00:52:22.839Z,2.58
2022-08-03T00:58:26.490Z,2.75
2022-08-03T01:04:31.461Z,2.70
2022-08-03T01:10:42.988Z,3.20
2022-08-03T01:16:58.166Z,3.00
2022-08-03T01:23:20.594Z,3.03
2022-08-03T01:29:58.632Z,3.00
2022-08-03T01:36:05.401Z,2.67
2022-08-03T01:42:12.615Z,2.95
2022-08-03T01:48:19.862Z,2.33
2022-08-03T01:54:24.932Z,2.45
2022-08-03T02:00:28.956Z,2.58
2022-08-03T02:07:02.152Z,3.00
2022-08-03T02:13:02.615Z,2.50
2022-08-03T02:19:08.688Z,2.67
2022-08-03T02:25:15.699Z,3.28
2022-08-03T02:31:24.318Z,2.70
2022-08-03T02:37:32.114Z,2.83
2022-08-03T02:44:05.415Z,2.97
2022-08-03T02:50:03.995Z,2.75
2022-08-03T02:56:10.154Z,2.85
2022-08-03T03:02:17.079Z,2.95
2022-08-03T03:08:27.497Z,3.42
2022-08-03T03:14:33.173Z,2.70
2022-08-03T03:20:40.989Z,2.80
2022-08-03T03:26:45.668Z,2.80
2022-08-03T03:32:49.482Z,2.83
2022-08-03T03:38:55.154Z,3.13
2022-08-03T03:44:58.886Z,3.10
2022-08-03T03:51:04.000Z,3.25
2022-08-03T03:57:08.967Z,2.78
2022-08-03T04:03:16.919Z,3.15
2022-08-03T04:09:38.414Z,3.17
2022-08-03T04:15:44.058Z,3.22
2022-08-03T04:21:53.376Z,2.90
2022-08-03T04:28:09.735Z,2.88
2022-08-03T04:34:29.216Z,3.25
2022-08-03T04:40:36.141Z,3.00
2022-08-03T04:46:41.761Z,3.40
2022-08-03T04:58:59.251Z,2.80
2022-08-03T05:05:02.789Z,3.50
2022-08-03T05:11:07.918Z,3.00
2022-08-03T05:17:11.459Z,3.60
2022-08-03T05:23:15.110Z,3.00
2022-08-03T05:29:20.140Z,2.90
2022-08-03T05:36:01.593Z,3.22
2022-08-03T05:41:50.080Z,2.42
2022-08-03T05:47:55.027Z,3.50
2022-08-03T05:53:58.648Z,3.20
2022-08-03T06:00:04.082Z,3.00
2022-08-03T06:06:09.390Z,2.95
2022-08-03T06:12:14.319Z,3.05
2022-08-03T06:18:17.949Z,3.90
2022-08-03T06:24:22.882Z,3.38
2022-08-03T06:30:28.686Z,3.42
2022-08-03T06:36:32.523Z,3.08
2022-08-03T06:42:37.410Z,2.90
2022-08-03T06:48:41.360Z,2.83
2022-08-03T06:54:44.892Z,2.90
2022-08-03T07:00:49.829Z,2.58
2022-08-03T07:06:54.298Z,2.80
2022-08-03T07:12:57.818Z,2.67
2022-08-03T07:19:02.943Z,2.95
2022-08-03T07:25:07.640Z,2.50
2022-08-03T07:31:13.450Z,2.28
2022-08-03T07:37:18.498Z,2.50
2022-08-03T07:43:21.992Z,2.42
2022-08-03T07:49:25.689Z,2.13
2022-08-03T07:55:30.875Z,2.25
2022-08-03T08:01:36.818Z,2.70
2022-08-03T08:07:41.431Z,2.20
2022-08-03T08:13:46.407Z,2.20
2022-08-03T08:19:51.546Z,2.17
2022-08-03T08:25:56.782Z,2.10
2022-08-03T08:32:01.720Z,2.42
2022-08-03T08:38:05.900Z,2.58
2022-08-03T08:44:10.338Z,2.45
2022-08-03T08:50:27.946Z,2.58
2022-08-03T08:56:33.840Z,2.40
2022-08-03T09:02:37.830Z,2.40
2022-08-03T09:15:07.639Z,2.65
2022-08-03T09:21:31.093Z,2.40
2022-08-03T09:27:45.086Z,2.40
2022-08-03T09:33:49.378Z,2.50
2022-08-03T09:39:52.954Z,2.40
2022-08-03T09:46:07.583Z,2.83
2022-08-03T09:52:33.544Z,2.65
2022-08-03T09:58:47.298Z,2.83
2022-08-03T10:04:53.688Z,2.53
2022-08-03T10:10:58.811Z,2.70
2022-08-03T10:17:02.432Z,2.58
2022-08-03T10:23:09.429Z,2.83
2022-08-03T10:29:19.587Z,2.53
2022-08-03T10:35:26.396Z,2.65
2022-08-03T10:41:36.300Z,2.83
2022-08-03T10:47:41.861Z,3.25
2022-08-03T10:53:52.820Z,2.97
2022-08-03T11:00:03.409Z,2.90
2022-08-03T11:06:19.100Z,2.65
2022-08-03T11:12:30.744Z,2.90
2022-08-03T11:18:36.680Z,3.10
2022-08-03T11:24:59.422Z,2.53
2022-08-03T11:31:52.051Z,2.65
2022-08-03T11:38:12.031Z,2.58
2022-08-03T11:44:41.607Z,3.33
2022-08-03T11:50:51.290Z,3.20
2022-08-03T11:56:56.261Z,2.60
2022-08-03T12:03:02.625Z,2.80
2022-08-03T12:09:16.913Z,2.50
2022-08-03T12:15:26.733Z,2.40
2022-08-03T12:21:31.177Z,2.70
2022-08-03T12:27:34.845Z,3.00
2022-08-03T12:33:58.855Z,2.75
2022-08-03T12:40:10.527Z,2.75
2022-08-03T12:46:16.427Z,2.67
2022-08-03T12:52:24.043Z,3.10
2022-08-03T12:58:33.820Z,2.80
2022-08-03T13:04:38.400Z,2.60
2022-08-03T13:10:43.324Z,2.63
2022-08-03T13:16:46.837Z,2.78
2022-08-03T13:22:50.419Z,2.70
2022-08-03T13:28:55.348Z,3.20
2022-08-03T13:34:58.992Z,2.60
2022-08-03T13:47:10.125Z,2.80
2022-08-03T13:53:13.674Z,2.88
2022-08-03T13:59:17.418Z,2.45
2022-08-03T14:05:22.454Z,2.70
2022-08-03T14:11:26.029Z,2.75
2022-08-03T14:17:50.250Z,2.80
2022-08-03T14:23:56.818Z,2.70
2022-08-03T14:30:01.544Z,2.83
2022-08-03T14:36:06.113Z,2.97
2022-08-03T14:42:11.106Z,2.83
2022-08-03T14:50:29.015Z,2.83
2022-08-03T14:54:38.207Z,3.60
2022-08-03T15:06:46.510Z,2.80
2022-08-03T15:12:55.312Z,2.88
2022-08-03T15:19:00.946Z,2.83
2022-08-03T15:26:02.161Z,2.70
2022-08-03T15:31:28.487Z,2.90
2022-08-03T15:37:33.414Z,2.60
2022-08-03T15:43:38.373Z,2.92
2022-08-03T15:49:42.622Z,2.80
2022-08-03T16:01:51.065Z,2.60
2022-08-03T16:08:03.987Z,3.00
2022-08-03T16:14:30.693Z,3.05
2022-08-03T16:20:35.125Z,2.97
2022-08-03T16:33:17.289Z,3.33
2022-08-03T16:39:21.495Z,2.92
2022-08-03T16:51:40.352Z,2.90
2022-08-03T16:57:59.583Z,3.30
2022-08-03T17:04:04.959Z,3.42
2022-08-03T17:10:12.425Z,4.10
2022-08-03T17:16:18.791Z,3.45
2022-08-03T17:22:29.029Z,3.85
2022-08-03T17:28:50.005Z,3.88
2022-08-03T17:34:57.127Z,3.58
2022-08-03T17:41:01.449Z,3.97
2022-08-03T17:53:29.692Z,3.67
2022-08-03T17:59:51.689Z,3.58
2022-08-03T18:06:11.634Z,4.00
2022-08-03T18:12:23.774Z,4.18
2022-08-03T18:18:33.111Z,3.75
2022-08-03T18:24:39.314Z,4.50
2022-08-03T18:30:53.207Z,3.67
2022-08-03T18:37:00.791Z,4.25
2022-08-03T18:43:47.163Z,3.53
2022-08-03T18:50:02.255Z,3.70
2022-08-03T18:56:16.007Z,3.90
2022-08-03T19:02:35.833Z,4.07
2022-08-03T19:08:47.883Z,3.72
2022-08-03T19:14:54.890Z,4.32
2022-08-03T19:21:15.691Z,3.60
2022-08-03T19:27:26.995Z,3.67
2022-08-03T19:33:55.741Z,3.78
2022-08-03T19:40:02.689Z,3.63
2022-08-03T19:46:13.156Z,3.45
2022-08-03T19:52:28.319Z,3.70
2022-08-03T19:58:37.376Z,4.10
2022-08-03T20:04:41.358Z,3.60
2022-08-03T20:10:45.517Z,3.88
2022-08-03T20:16:55.927Z,3.35
2022-08-03T20:23:01.810Z,4.22
2022-08-03T20:29:10.099Z,3.95
2022-08-03T20:35:16.654Z,4.18
2022-08-03T20:41:21.530Z,4.00
2022-08-03T20:47:25.369Z,3.63
2022-08-03T20:53:57.279Z,3.45
2022-08-03T20:59:55.057Z,3.40
2022-08-03T21:06:06.492Z,3.30
2022-08-03T21:12:18.988Z,3.45
2022-08-03T21:18:26.270Z,3.05
2022-08-03T21:24:31.798Z,3.40
2022-08-03T21:30:38.138Z,3.72
2022-08-03T21:36:41.750Z,3.63
2022-08-03T21:48:56.215Z,3.78
2022-08-03T21:55:04.138Z,3.50
2022-08-03T22:01:10.049Z,3.80
2022-08-03T22:07:15.385Z,3.95
2022-08-03T22:13:44.154Z,3.63
2022-08-03T22:19:43.478Z,3.70
2022-08-03T22:25:49.761Z,4.03
2022-08-03T22:31:58.116Z,3.95
2022-08-03T22:38:07.001Z,3.90
2022-08-03T22:44:12.487Z,4.10
2022-08-03T22:50:32.810Z,4.20
2022-08-03T22:56:38.965Z,4.00
2022-08-03T23:02:48.082Z,3.63
2022-08-03T23:08:52.179Z,3.72
2022-08-03T23:14:57.412Z,3.35
2022-08-03T23:21:11.156Z,3.78
2022-08-03T23:27:16.797Z,3.90
2022-08-03T23:33:21.198Z,3.67
2022-08-03T23:39:29.942Z,3.55
2022-08-03T23:45:41.612Z,3.90
2022-08-03T23:52:00.803Z,3.60
2022-08-03T23:58:17.048Z,3.17
